Time;durP1;ratioP1;P1;durP2;ratioP2;P2;SDS_P1;SDS_P2;PMS_P1;PMS_P2;Temp;Humidity;BMP_temperature;BMP_pressure;BME280_temperature;BME280_humidity;BME280_pressure;Samples;Min_cycle;Max_cycle;Signal;HPM_P1;HPM_P2
2021/08/21 00:00:49;;;;;;;45.80;42.95;;;;;;;14.68;100.00;101097.59;5045126;28;20061;-76
2021/08/21 00:03:16;;;;;;;38.75;35.95;;;;;;;15.02;100.00;101104.16;5047452;28;20056;-76
2021/08/21 00:05:43;;;;;;;41.88;39.10;;;;;;;15.22;100.00;101103.91;5049907;28;20378;-79
2021/08/21 00:08:10;;;;;;;40.90;38.00;;;;;;;14.61;100.00;101107.53;5044890;28;20048;-77
2021/08/21 00:10:37;;;;;;;43.80;40.70;;;;;;;14.96;100.00;101099.72;5046400;28;20049;-76
2021/08/21 00:13:04;;;;;;;42.83;39.67;;;;;;;14.52;100.00;101104.31;5043433;28;20049;-77
2021/08/21 00:15:32;;;;;;;47.10;43.90;;;;;;;14.62;100.00;101091.28;5039903;28;20449;-77
2021/08/21 00:17:59;;;;;;;40.58;37.85;;;;;;;15.10;100.00;101095.81;5047091;28;20049;-76
2021/08/21 00:20:26;;;;;;;47.63;44.25;;;;;;;15.17;100.00;101095.72;5049368;28;20126;-77
2021/08/21 00:22:52;;;;;;;46.53;43.10;;;;;;;15.02;100.00;101096.13;5046430;28;20045;-80
2021/08/21 00:25:19;;;;;;;46.15;43.00;;;;;;;15.05;100.00;101093.00;5042991;28;20053;-77
2021/08/21 00:27:46;;;;;;;42.22;39.28;;;;;;;14.89;100.00;101102.47;5047109;28;20061;-78
2021/08/21 00:30:14;;;;;;;44.45;41.47;;;;;;;14.72;100.00;101106.78;5044758;28;20075;-76
2021/08/21 00:32:42;;;;;;;39.63;36.92;;;;;;;14.91;100.00;101094.22;5044351;28;20064;-76
2021/08/21 00:35:11;;;;;;;45.00;41.92;;;;;;;14.90;100.00;101103.28;5040859;28;20512;-77
2021/08/21 00:37:38;;;;;;;42.47;39.67;;;;;;;14.88;100.00;101110.69;5044377;28;20060;-77
2021/08/21 00:40:06;;;;;;;46.00;43.10;;;;;;;14.97;100.00;101109.34;5042740;28;20401;-77
2021/08/21 00:42:33;;;;;;;47.10;43.97;;;;;;;14.87;100.00;101099.19;5046434;28;20045;-76
2021/08/21 00:45:01;;;;;;;41.55;38.65;;;;;;;14.65;100.00;101108.72;5045038;28;20544;-77
2021/08/21 00:47:28;;;;;;;40.20;37.33;;;;;;;14.89;100.00;101099.78;5045827;28;20053;-77
2021/08/21 00:49:56;;;;;;;44.17;41.13;;;;;;;14.94;100.00;101095.63;5037414;28;20049;-76
2021/08/21 00:52:24;;;;;;;43.92;40.92;;;;;;;14.71;100.00;101105.16;5046313;28;20041;-76
2021/08/21 00:54:53;;;;;;;41.47;38.38;;;;;;;14.95;100.00;101103.44;5043642;28;20041;-77
2021/08/21 00:57:20;;;;;;;41.38;38.47;;;;;;;14.66;100.00;101115.69;5045026;28;20061;-77
2021/08/21 00:59:49;;;;;;;40.72;37.83;;;;;;;14.83;100.00;101110.56;5043778;28;20049;-77
2021/08/21 01:02:16;;;;;;;40.42;37.70;;;;;;;14.88;100.00;101110.69;5043538;28;20407;-76
2021/08/21 01:04:46;;;;;;;40.00;37.33;;;;;;;14.82;100.00;101104.38;5052304;28;20045;-77
2021/08/21 01:07:16;;;;;;;39.72;37.25;;;;;;;14.87;100.00;101104.53;5042819;28;20042;-77
2021/08/21 01:09:43;;;;;;;43.35;40.55;;;;;;;14.74;100.00;101098.56;5036315;28;20057;-77
2021/08/21 01:12:12;;;;;;;47.75;44.65;;;;;;;14.75;100.00;101097.50;5044267;28;20126;-77
2021/08/21 01:14:39;;;;;;;40.38;37.50;;;;;;;14.33;100.00;101110.69;5046023;28;20103;-77
2021/08/21 01:17:06;;;;;;;48.85;45.47;;;;;;;14.56;100.00;101104.72;5042885;28;20049;-78
2021/08/21 01:19:36;;;;;;;51.08;47.70;;;;;;;14.67;100.00;101103.94;5053244;28;20068;-78
2021/08/21 01:22:04;;;;;;;49.40;46.30;;;;;;;14.64;100.00;101101.72;5045092;28;20056;-77
2021/08/21 01:24:32;;;;;;;52.25;48.38;;;;;;;14.48;100.00;101104.97;5043387;28;20056;-78
2021/08/21 01:27:00;;;;;;;49.30;46.05;;;;;;;14.57;100.00;101106.34;5045837;28;20115;-78
2021/08/21 01:29:27;;;;;;;51.72;48.53;;;;;;;14.59;100.00;101102.41;5046537;28;20179;-77
2021/08/21 01:31:54;;;;;;;44.35;41.35;;;;;;;14.48;100.00;101103.13;5040799;28;20053;-77
2021/08/21 01:34:21;;;;;;;46.22;43.17;;;;;;;14.61;100.00;101108.38;5053350;28;20052;-76
2021/08/21 01:36:50;;;;;;;45.03;42.13;;;;;;;14.35;100.00;101109.41;5043088;28;20045;-77
2021/08/21 01:39:18;;;;;;;41.50;38.63;;;;;;;14.33;100.00;101113.34;5034573;28;20076;-76
2021/08/21 01:41:45;;;;;;;43.25;40.35;;;;;;;14.35;100.00;101112.09;5045396;28;20056;-76
2021/08/21 01:44:16;;;;;;;39.90;37.10;;;;;;;14.56;100.00;101108.22;5045982;28;20055;-76
2021/08/21 01:46:46;;;;;;;42.97;39.90;;;;;;;14.58;100.00;101111.47;5044961;28;20460;-77
2021/08/21 01:49:14;;;;;;;39.72;36.65;;;;;;;14.04;100.00;101113.00;5034916;28;20049;-76
2021/08/21 01:51:42;;;;;;;40.22;36.78;;;;;;;13.71;100.00;101111.44;5045397;28;20053;-77
2021/08/21 01:54:09;;;;;;;42.53;39.22;;;;;;;13.39;100.00;101110.59;5041612;28;20049;-77
2021/08/21 01:56:46;;;;;;;40.55;37.55;;;;;;;13.51;100.00;101122.22;5046774;28;20119;-79
2021/08/21 01:59:21;;;;;;;45.13;42.28;;;;;;;13.77;100.00;101122.25;5040006;28;20056;-76
2021/08/21 02:01:49;;;;;;;40.13;36.92;;;;;;;13.49;100.00;101123.47;5140021;23;20132;-77
2021/08/21 02:04:16;;;;;;;41.10;37.60;;;;;;;14.07;100.00;101119.75;4999006;28;20061;-76
2021/08/21 02:06:43;;;;;;;45.10;42.05;;;;;;;14.19;100.00;101112.66;4992921;28;20055;-76
2021/08/21 02:09:10;;;;;;;42.38;39.25;;;;;;;14.14;100.00;101121.34;5000984;28;20136;-76
2021/08/21 02:11:37;;;;;;;43.92;40.92;;;;;;;14.14;100.00;101124.00;5000665;28;20058;-77
2021/08/21 02:14:04;;;;;;;40.08;37.28;;;;;;;14.14;100.00;101136.56;5001060;28;20050;-76
2021/08/21 02:16:33;;;;;;;40.30;37.38;;;;;;;14.16;100.00;101132.63;5002088;28;20058;-77
2021/08/21 02:18:59;;;;;;;41.75;38.60;;;;;;;14.10;100.00;101130.84;5010617;28;20053;-76
2021/08/21 02:21:26;;;;;;;42.15;39.20;;;;;;;13.86;100.00;101131.66;5000437;28;20050;-76
2021/08/21 02:23:55;;;;;;;47.65;44.22;;;;;;;14.03;100.00;101130.06;5005234;28;20115;-77
2021/08/21 02:26:22;;;;;;;44.05;40.75;;;;;;;13.81;100.00;101126.13;4997506;28;20046;-76
2021/08/21 02:28:49;;;;;;;41.97;38.67;;;;;;;13.45;100.00;101131.09;5004612;28;20457;-77
2021/08/21 02:31:15;;;;;;;44.30;40.80;;;;;;;13.54;100.00;101134.31;5000204;28;20399;-77
2021/08/21 02:33:43;;;;;;;41.15;37.65;;;;;;;13.16;100.00;101131.63;5007968;28;20465;-80
2021/08/21 02:36:12;;;;;;;41.20;37.80;;;;;;;13.67;100.00;101138.75;5005886;28;20108;-76
2021/08/21 02:38:39;;;;;;;36.63;33.80;;;;;;;13.71;100.00;101147.97;5001951;28;20054;-77
2021/08/21 02:41:06;;;;;;;38.83;35.55;;;;;;;13.69;100.00;101142.03;5001459;28;20062;-80
2021/08/21 02:43:33;;;;;;;44.38;40.58;;;;;;;13.48;100.00;101146.66;5000247;28;20054;-77
2021/08/21 02:46:00;;;;;;;46.13;42.67;;;;;;;13.57;100.00;101147.25;5001664;28;20541;-77
2021/08/21 02:48:27;;;;;;;44.38;41.05;;;;;;;13.50;100.00;101141.94;5005625;28;20484;-77
2021/08/21 02:50:55;;;;;;;44.45;41.03;;;;;;;13.48;100.00;101153.88;5005501;28;20046;-77
2021/08/21 02:53:22;;;;;;;44.47;41.28;;;;;;;13.55;100.00;101146.63;5000963;28;20520;-78
2021/08/21 02:55:49;;;;;;;42.28;39.05;;;;;;;13.57;100.00;101147.25;5000714;28;20047;-77
2021/08/21 02:58:16;;;;;;;45.45;41.85;;;;;;;13.24;100.00;101150.88;5001871;28;20046;-77
2021/08/21 03:00:43;;;;;;;42.25;38.67;;;;;;;13.56;100.00;101144.81;5001350;28;20119;-76
2021/08/21 03:03:10;;;;;;;43.38;39.88;;;;;;;13.01;100.00;101155.91;5002908;28;20473;-77
2021/08/21 03:05:37;;;;;;;38.17;35.08;;;;;;;12.60;100.00;101149.88;5005931;28;20119;-78
2021/08/21 03:08:06;;;;;;;39.95;36.67;;;;;;;12.95;100.00;101159.41;5005401;28;20123;-77
2021/08/21 03:10:33;;;;;;;41.25;37.55;;;;;;;12.83;100.00;101153.94;5006525;28;20046;-78
2021/08/21 03:13:00;;;;;;;43.13;39.53;;;;;;;13.16;100.00;101160.97;5004768;28;20131;-77
2021/08/21 03:15:28;;;;;;;46.90;43.28;;;;;;;13.04;100.00;101161.66;5003025;28;20050;-77
2021/08/21 03:17:55;;;;;;;43.50;40.15;;;;;;;13.09;100.00;101160.19;5004677;28;20050;-76
2021/08/21 03:20:22;;;;;;;42.58;39.20;;;;;;;13.16;100.00;101159.13;5000480;28;20054;-76
2021/08/21 03:22:49;;;;;;;42.40;38.78;;;;;;;13.11;100.00;101171.47;5006833;28;20491;-77
2021/08/21 03:25:17;;;;;;;42.60;39.20;;;;;;;13.15;100.00;101168.16;5002184;28;20054;-77
2021/08/21 03:27:44;;;;;;;43.10;40.00;;;;;;;12.96;100.00;101174.41;5006828;28;20050;-77
2021/08/21 03:30:12;;;;;;;42.03;38.83;;;;;;;12.89;100.00;101169.09;5006191;28;20060;-77
2021/08/21 03:32:39;;;;;;;42.30;38.92;;;;;;;13.04;100.00;101179.47;5006705;28;20061;-77
2021/08/21 03:35:07;;;;;;;42.58;39.42;;;;;;;12.71;100.00;101175.09;5011683;28;20054;-77
2021/08/21 03:37:34;;;;;;;46.50;43.03;;;;;;;12.22;100.00;101180.88;5003715;28;20058;-76
2021/08/21 03:40:01;;;;;;;51.33;47.38;;;;;;;12.31;100.00;101188.44;5003019;28;20050;-75
2021/08/21 03:42:29;;;;;;;47.33;43.67;;;;;;;12.86;100.00;101182.84;5005005;28;20050;-77
2021/08/21 03:44:56;;;;;;;44.75;41.40;;;;;;;13.15;100.00;101188.69;5004825;28;20064;-76
2021/08/21 03:47:23;;;;;;;43.42;40.35;;;;;;;13.10;100.00;101183.16;5004287;28;20058;-77
2021/08/21 03:49:49;;;;;;;42.70;39.30;;;;;;;13.13;100.00;101188.91;5010862;28;20072;-76
2021/08/21 03:52:16;;;;;;;48.40;44.60;;;;;;;13.26;100.00;101191.53;5006055;28;20054;-77
2021/08/21 03:54:43;;;;;;;45.90;42.80;;;;;;;13.23;100.00;101188.44;5004423;28;20058;-77
2021/08/21 03:57:11;;;;;;;40.92;38.13;;;;;;;13.14;100.00;101193.19;5003596;28;20058;-76
2021/08/21 03:59:39;;;;;;;39.50;36.60;;;;;;;13.28;100.00;101189.47;4995091;28;20479;-77
2021/08/21 04:02:06;;;;;;;43.28;40.15;;;;;;;13.47;100.00;101187.75;5002478;28;20050;-77
2021/08/21 04:04:33;;;;;;;42.10;39.05;;;;;;;13.72;100.00;101190.47;5013314;28;20050;-76
2021/08/21 04:07:00;;;;;;;41.97;39.13;;;;;;;13.65;100.00;101192.38;4995975;28;20050;-77
2021/08/21 04:09:26;;;;;;;42.03;38.92;;;;;;;13.62;100.00;101191.97;5003533;28;20046;-76
2021/08/21 04:11:53;;;;;;;39.00;36.20;;;;;;;13.74;100.00;101193.75;5003959;28;20057;-76
2021/08/21 04:14:20;;;;;;;37.80;35.00;;;;;;;13.99;100.00;101192.97;5006702;28;20061;-76
2021/08/21 04:16:48;;;;;;;38.53;35.63;;;;;;;14.00;100.00;101191.09;5000076;28;20055;-77
2021/08/21 04:19:15;;;;;;;40.67;37.53;;;;;;;14.17;100.00;101197.56;4994993;28;20046;-77
2021/08/21 04:21:42;;;;;;;42.40;39.55;;;;;;;14.07;100.00;101197.19;5003839;28;20061;-77
2021/08/21 04:24:09;;;;;;;43.13;40.13;;;;;;;14.35;100.00;101199.47;5006546;28;20402;-76
2021/08/21 04:26:35;;;;;;;39.35;36.65;;;;;;;14.56;100.00;101199.09;5005711;28;20478;-77
2021/08/21 04:29:02;;;;;;;39.55;36.88;;;;;;;14.93;100.00;101196.44;5004635;28;20379;-76
2021/08/21 04:31:29;;;;;;;43.88;40.97;;;;;;;14.88;100.00;101201.63;5000552;28;20116;-76
2021/08/21 04:33:57;;;;;;;41.97;39.22;;;;;;;15.10;100.00;101197.47;5011993;28;20046;-76
2021/08/21 04:36:24;;;;;;;41.40;38.90;;;;;;;15.09;100.00;101201.19;5002209;28;20050;-76
2021/08/21 04:38:51;;;;;;;34.45;32.25;;;;;;;15.22;100.00;101196.69;5001678;28;20065;-76
2021/08/21 04:41:17;;;;;;;36.45;33.80;;;;;;;15.04;100.00;101198.38;5003125;28;20108;-78
2021/08/21 04:43:44;;;;;;;36.78;34.28;;;;;;;15.44;100.00;101199.75;5003962;28;20133;-77
2021/08/21 04:46:11;;;;;;;34.45;31.95;;;;;;;15.43;100.00;101204.28;5005197;28;20058;-76
2021/08/21 04:48:38;;;;;;;36.13;33.63;;;;;;;15.64;100.00;101189.56;4999692;28;20128;-77
2021/08/21 04:51:06;;;;;;;37.85;35.13;;;;;;;15.69;100.00;101197.75;4999382;28;20117;-77
2021/08/21 04:53:33;;;;;;;33.70;31.50;;;;;;;15.77;100.00;101197.44;5007243;28;20506;-77
2021/08/21 04:56:00;;;;;;;33.00;30.67;;;;;;;15.67;100.00;101194.47;5003435;28;20042;-78
2021/08/21 04:58:26;;;;;;;32.35;30.05;;;;;;;15.93;100.00;101198.66;5003412;28;20132;-76
2021/08/21 05:00:53;;;;;;;33.10;30.80;;;;;;;16.05;100.00;101196.00;5003514;28;20120;-77
2021/08/21 05:03:20;;;;;;;31.70;29.50;;;;;;;16.27;100.00;101199.72;5006146;28;20085;-77
2021/08/21 05:05:47;;;;;;;33.38;30.95;;;;;;;16.10;100.00;101195.31;5004487;28;20446;-76
2021/08/21 05:08:16;;;;;;;32.17;30.05;;;;;;;16.51;100.00;101204.31;5004244;28;20046;-77
2021/08/21 05:10:42;;;;;;;32.05;29.92;;;;;;;16.55;100.00;101203.63;5005058;28;20056;-76
2021/08/21 05:13:09;;;;;;;32.70;30.30;;;;;;;16.71;100.00;101196.72;5003627;28;20050;-77
2021/08/21 05:15:39;;;;;;;33.38;31.08;;;;;;;16.81;100.00;101202.31;5001975;28;20049;-78
2021/08/21 05:18:06;;;;;;;33.60;31.13;;;;;;;16.90;100.00;101205.47;5004642;28;20053;-78
2021/08/21 05:20:42;;;;;;;33.35;31.25;;;;;;;16.86;100.00;101212.38;5007492;28;20467;-77
2021/08/21 05:23:14;;;;;;;32.05;29.75;;;;;;;17.08;100.00;101205.31;5003124;28;20053;-75
2021/08/21 05:25:45;;;;;;;33.35;30.98;;;;;;;17.46;100.00;101214.66;5002649;28;20452;-76
2021/08/21 05:28:12;;;;;;;35.38;32.90;;;;;;;17.55;100.00;101205.16;5002951;28;20415;-76
2021/08/21 05:30:39;;;;;;;35.60;33.20;;;;;;;17.69;100.00;101208.34;5002442;28;20061;-76
2021/08/21 05:33:09;;;;;;;34.72;32.33;;;;;;;17.88;100.00;101205.47;5002221;28;20050;-78
2021/08/21 05:35:36;;;;;;;33.45;31.02;;;;;;;18.07;100.00;101201.53;4999790;28;20504;-78
2021/08/21 05:38:03;;;;;;;35.17;32.67;;;;;;;18.21;100.00;101208.19;5002682;28;20058;-76
2021/08/21 05:40:30;;;;;;;37.65;35.03;;;;;;;18.27;100.00;101214.47;5004643;28;20042;-76
2021/08/21 05:42:59;;;;;;;36.55;33.80;;;;;;;18.47;100.00;101209.41;5000297;28;20054;-76
2021/08/21 05:45:27;;;;;;;34.83;32.30;;;;;;;18.58;100.00;101201.47;5004509;28;20128;-77
2021/08/21 05:47:54;;;;;;;33.33;30.92;;;;;;;18.71;100.00;101209.19;5004459;28;20054;-76
2021/08/21 05:50:21;;;;;;;33.80;31.20;;;;;;;18.91;100.00;101212.22;5006638;28;20141;-77
2021/08/21 05:52:48;;;;;;;32.88;30.48;;;;;;;19.12;100.00;101212.44;5004651;28;20091;-76
2021/08/21 05:55:15;;;;;;;31.95;29.23;;;;;;;19.31;100.00;101212.94;4999771;28;20490;-77
2021/08/21 05:57:42;;;;;;;32.20;29.42;;;;;;;19.30;100.00;101211.31;5003785;28;20058;-77
2021/08/21 06:00:12;;;;;;;31.58;29.17;;;;;;;19.88;100.00;101199.81;5000852;28;20045;-76
2021/08/21 06:02:38;;;;;;;31.65;29.38;;;;;;;20.04;100.00;101205.34;5001424;28;20514;-76
2021/08/21 06:05:06;;;;;;;32.78;30.50;;;;;;;20.19;100.00;101201.97;4997920;28;20061;-76
2021/08/21 06:07:33;;;;;;;32.00;29.70;;;;;;;20.45;100.00;101198.34;4995385;28;20049;-76
2021/08/21 06:10:00;;;;;;;29.23;27.15;;;;;;;20.59;100.00;101198.75;5003395;28;20074;-77
2021/08/21 06:12:27;;;;;;;30.05;27.73;;;;;;;20.59;100.00;101202.25;4997790;28;20058;-77
2021/08/21 06:14:53;;;;;;;30.77;28.42;;;;;;;20.72;100.00;101206.38;5002523;28;20061;-77
2021/08/21 06:17:21;;;;;;;31.13;28.52;;;;;;;20.90;100.00;101193.50;5003678;28;20054;-76
2021/08/21 06:19:48;;;;;;;29.73;27.60;;;;;;;21.43;100.00;101200.47;4994711;28;20131;-77
2021/08/21 06:22:15;;;;;;;32.67;30.08;;;;;;;21.72;100.00;101195.41;5003508;28;20054;-77
2021/08/21 06:24:42;;;;;;;30.95;28.75;;;;;;;21.89;100.00;101197.81;5002426;28;20058;-77
2021/08/21 06:27:09;;;;;;;30.27;27.75;;;;;;;22.14;100.00;101190.78;5002641;28;20058;-77
2021/08/21 06:29:36;;;;;;;27.58;25.58;;;;;;;22.27;100.00;101197.56;4992379;28;20057;-77
2021/08/21 06:32:04;;;;;;;28.30;26.13;;;;;;;22.34;100.00;101195.41;5003940;28;20077;-76
2021/08/21 06:34:33;;;;;;;29.10;27.20;;;;;;;22.63;100.00;101201.00;4993113;28;20090;-77
2021/08/21 06:37:00;;;;;;;27.90;26.00;;;;;;;22.73;100.00;101189.38;4993286;28;20046;-76
2021/08/21 06:39:27;;;;;;;29.17;26.98;;;;;;;22.61;100.00;101197.78;5002934;28;20057;-79
2021/08/21 06:41:54;;;;;;;28.45;26.55;;;;;;;23.11;100.00;101189.78;5003264;28;20455;-76
2021/08/21 06:44:21;;;;;;;28.55;26.45;;;;;;;23.18;100.00;101195.69;4998867;28;20113;-77
2021/08/21 06:46:48;;;;;;;27.42;25.25;;;;;;;23.54;100.00;101201.72;5005378;28;20112;-77
2021/08/21 06:49:14;;;;;;;28.92;26.65;;;;;;;24.04;100.00;101194.31;4994757;28;20050;-77
2021/08/21 06:51:42;;;;;;;30.55;28.13;;;;;;;24.10;100.00;101200.53;5001800;28;20137;-77
2021/08/21 06:54:09;;;;;;;28.92;27.13;;;;;;;23.98;100.00;101200.91;5001133;28;20064;-76
2021/08/21 06:56:36;;;;;;;28.40;26.50;;;;;;;24.10;100.00;101197.81;4992125;28;20050;-77
2021/08/21 06:59:03;;;;;;;28.40;26.38;;;;;;;24.63;100.00;101200.56;5003148;28;20057;-79
2021/08/21 07:01:31;;;;;;;29.77;27.88;;;;;;;24.68;100.00;101198.59;5002641;28;20054;-76
2021/08/21 07:03:57;;;;;;;27.58;25.73;;;;;;;24.70;100.00;101205.66;4997234;28;20074;-77
2021/08/21 07:06:24;;;;;;;30.67;28.58;;;;;;;24.76;100.00;101209.94;5004575;28;20042;-76
2021/08/21 07:08:52;;;;;;;29.75;27.40;;;;;;;24.79;100.00;101204.72;5000272;28;20065;-77
2021/08/21 07:11:19;;;;;;;29.08;27.13;;;;;;;24.90;100.00;101210.84;5001739;28;20053;-77
2021/08/21 07:13:46;;;;;;;28.33;25.92;;;;;;;25.10;100.00;101212.50;5001749;28;20515;-77
2021/08/21 07:16:13;;;;;;;27.70;25.70;;;;;;;25.55;97.66;101205.66;5000321;28;20140;-76
2021/08/21 07:18:40;;;;;;;27.73;25.92;;;;;;;25.80;97.70;101209.88;5003300;28;20111;-78
2021/08/21 07:21:09;;;;;;;28.17;26.05;;;;;;;25.86;94.31;101212.56;4999976;28;20112;-77
2021/08/21 07:23:35;;;;;;;28.73;26.73;;;;;;;25.66;92.00;101210.94;5001185;28;20065;-77
2021/08/21 07:26:04;;;;;;;28.13;26.27;;;;;;;25.79;97.26;101211.00;5000977;28;20498;-76
2021/08/21 07:28:31;;;;;;;28.92;26.88;;;;;;;26.41;96.53;101202.59;5005636;28;20054;-78
2021/08/21 07:30:58;;;;;;;28.08;25.95;;;;;;;26.35;88.32;101209.25;5000998;28;20050;-76
2021/08/21 07:33:25;;;;;;;26.95;24.70;;;;;;;26.50;86.90;101208.19;4999055;28;20054;-77
2021/08/21 07:35:51;;;;;;;26.85;25.05;;;;;;;26.64;89.73;101203.56;5000289;28;20058;-77
2021/08/21 07:38:18;;;;;;;27.65;25.75;;;;;;;27.14;85.68;101216.44;5000846;28;20081;-77
2021/08/21 07:40:45;;;;;;;27.15;25.02;;;;;;;27.04;79.71;101214.75;5000801;28;20050;-78
2021/08/21 07:43:13;;;;;;;28.30;26.50;;;;;;;27.37;87.48;101211.91;5001119;28;20058;-82
2021/08/21 07:45:40;;;;;;;28.10;26.13;;;;;;;27.55;81.17;101210.94;5001556;28;20109;-76
2021/08/21 07:48:07;;;;;;;27.08;25.08;;;;;;;26.91;63.46;101210.13;5000796;28;20054;-78
2021/08/21 07:50:33;;;;;;;26.85;24.90;;;;;;;27.30;68.84;101209.59;4996741;28;20499;-77
2021/08/21 07:53:00;;;;;;;26.73;24.60;;;;;;;27.51;64.82;101212.66;5002518;28;20050;-76
2021/08/21 07:55:27;;;;;;;27.27;25.00;;;;;;;27.05;68.71;101213.66;5005236;28;20046;-79
2021/08/21 07:57:54;;;;;;;27.73;25.52;;;;;;;27.89;67.16;101217.00;5013953;28;20056;-77
2021/08/21 08:00:22;;;;;;;26.38;24.30;;;;;;;28.12;63.92;101215.88;5014488;28;20045;-81
2021/08/21 08:02:49;;;;;;;26.83;24.73;;;;;;;27.98;62.64;101215.13;5013469;28;20063;-78
2021/08/21 08:05:16;;;;;;;26.88;24.80;;;;;;;28.28;56.25;101214.34;5011118;28;20120;-78
2021/08/21 08:07:43;;;;;;;27.25;25.02;;;;;;;28.31;55.80;101216.44;5009456;28;20116;-78
2021/08/21 08:10:10;;;;;;;25.77;23.92;;;;;;;28.16;54.69;101211.38;5006383;28;20104;-78
2021/08/21 08:12:37;;;;;;;26.45;24.15;;;;;;;27.99;61.37;101206.63;5008967;28;20489;-81
2021/08/21 08:15:05;;;;;;;26.35;24.25;;;;;;;28.50;52.82;101209.97;5009136;28;20058;-78
2021/08/21 08:17:33;;;;;;;24.58;22.77;;;;;;;28.25;49.60;101204.03;5010873;28;20050;-78
2021/08/21 08:20:00;;;;;;;26.50;24.65;;;;;;;28.07;51.48;101216.78;5006042;28;20517;-76
2021/08/21 08:22:27;;;;;;;25.20;23.58;;;;;;;28.13;54.30;101228.38;4999032;28;20042;-77
2021/08/21 08:24:54;;;;;;;26.33;24.48;;;;;;;27.93;53.21;101215.25;5001566;28;20054;-80
2021/08/21 08:27:20;;;;;;;25.67;23.65;;;;;;;28.11;63.42;101218.88;5005208;28;20111;-78
2021/08/21 08:29:47;;;;;;;26.67;24.83;;;;;;;28.26;62.50;101213.84;5007807;28;20059;-79
2021/08/21 08:32:14;;;;;;;25.23;23.63;;;;;;;28.05;53.44;101212.78;5004978;28;20132;-78
2021/08/21 08:34:42;;;;;;;27.33;25.45;;;;;;;28.40;55.66;101199.28;5005150;28;20046;-80
2021/08/21 08:37:12;;;;;;;25.35;23.55;;;;;;;28.30;50.92;101205.84;4999578;28;20046;-78
2021/08/21 08:39:40;;;;;;;24.42;22.92;;;;;;;28.03;55.33;101215.00;5001346;28;20491;-79
2021/08/21 08:42:09;;;;;;;26.50;24.70;;;;;;;28.37;54.49;101208.91;5000551;28;20050;-80
2021/08/21 08:44:39;;;;;;;26.27;24.58;;;;;;;28.49;53.27;101202.91;5006292;28;20153;-82
2021/08/21 08:47:06;;;;;;;27.48;25.20;;;;;;;28.37;53.53;101197.19;5007448;28;20050;-77
2021/08/21 08:49:34;;;;;;;26.15;24.10;;;;;;;28.77;47.86;101203.47;5010064;28;20042;-80
2021/08/21 08:52:02;;;;;;;27.25;25.45;;;;;;;28.88;48.58;101196.59;4996039;28;20453;-79
2021/08/21 08:54:29;;;;;;;25.38;23.35;;;;;;;28.57;59.11;101201.34;5003496;28;20050;-77
2021/08/21 08:56:56;;;;;;;26.27;24.48;;;;;;;28.71;45.34;101197.34;5004354;28;20111;-77
2021/08/21 08:59:23;;;;;;;26.30;24.30;;;;;;;29.09;43.85;101191.34;5003675;28;20050;-77
2021/08/21 09:01:51;;;;;;;26.52;24.63;;;;;;;29.49;43.08;101188.47;5006343;28;20058;-79
2021/08/21 09:04:20;;;;;;;27.17;25.17;;;;;;;29.41;43.57;101183.81;5003079;28;20411;-78
2021/08/21 09:06:47;;;;;;;27.92;25.85;;;;;;;29.14;42.84;101182.19;5004704;28;20498;-79
2021/08/21 09:09:17;;;;;;;27.63;25.10;;;;;;;28.96;46.06;101181.34;4999002;28;20516;-77
2021/08/21 09:11:45;;;;;;;25.70;23.90;;;;;;;29.49;45.42;101177.53;5000292;28;20058;-80
2021/08/21 09:14:25;;;;;;;26.58;24.50;;;;;;;29.52;43.97;101176.88;5000630;28;20373;-79
2021/08/21 09:16:52;;;;;;;27.85;25.65;;;;;;;29.32;49.29;101185.72;5004172;28;20133;-80
2021/08/21 09:19:24;;;;;;;27.40;25.30;;;;;;;29.95;48.26;101184.25;5002979;28;20507;-80
2021/08/21 09:22:02;;;;;;;26.75;24.52;;;;;;;29.98;47.15;101183.59;5001862;28;20119;-78
2021/08/21 09:24:32;;;;;;;27.10;25.00;;;;;;;30.05;42.96;101178.44;5003930;28;20699;-77
2021/08/21 09:27:15;;;;;;;27.95;26.00;;;;;;;30.79;43.20;101177.19;5000657;28;20092;-78
2021/08/21 09:29:42;;;;;;;30.35;27.75;;;;;;;31.14;40.18;101167.97;4999733;28;20081;-78
2021/08/21 09:32:10;;;;;;;29.00;26.90;;;;;;;31.08;41.24;101170.09;5005968;28;20054;-79
2021/08/21 09:34:39;;;;;;;27.27;25.27;;;;;;;30.32;38.66;101168.25;5002395;28;20046;-80
2021/08/21 09:37:09;;;;;;;25.98;23.83;;;;;;;29.34;46.23;101167.88;5010831;28;20049;-77
2021/08/21 09:39:39;;;;;;;26.58;24.40;;;;;;;30.68;37.40;101169.66;5004260;28;20469;-80
2021/08/21 09:42:09;;;;;;;26.83;25.02;;;;;;;31.10;39.59;101156.03;5003057;28;20417;-78
2021/08/21 09:44:37;;;;;;;26.92;24.73;;;;;;;31.08;38.82;101150.88;5007543;28;20054;-76
2021/08/21 09:47:13;;;;;;;30.85;28.65;;;;;;;30.80;41.19;101162.38;5008799;28;20180;-78
2021/08/21 09:49:41;;;;;;;32.08;29.73;;;;;;;31.24;38.23;101162.06;5014540;28;20058;-78
2021/08/21 09:52:11;;;;;;;28.48;26.35;;;;;;;29.32;46.71;101167.41;5012550;28;20474;-79
2021/08/21 09:54:40;;;;;;;28.88;26.75;;;;;;;31.25;39.01;101163.66;4998584;28;20042;-76
2021/08/21 09:57:07;;;;;;;28.13;26.02;;;;;;;30.90;40.33;101163.13;4997254;28;20054;-81
2021/08/21 09:59:36;;;;;;;28.52;26.23;;;;;;;31.29;40.43;101166.50;5012012;28;20053;-76
2021/08/21 10:02:06;;;;;;;26.73;24.52;;;;;;;31.67;39.29;101164.41;5008318;28;20081;-78
2021/08/21 10:04:33;;;;;;;32.10;29.40;;;;;;;31.41;40.22;101156.44;5005118;28;20133;-79
2021/08/21 10:07:04;;;;;;;31.42;29.00;;;;;;;30.61;41.92;101152.94;5004406;28;20141;-80
2021/08/21 10:09:31;;;;;;;29.02;27.02;;;;;;;32.18;38.05;101161.47;5006374;28;20049;-78
2021/08/21 10:12:02;;;;;;;31.88;29.83;;;;;;;33.15;36.66;101151.56;4998810;28;20046;-79
2021/08/21 10:14:30;;;;;;;30.80;28.80;;;;;;;32.56;35.89;101155.69;5006392;28;20053;-78
2021/08/21 10:16:57;;;;;;;29.95;27.95;;;;;;;33.32;31.25;101152.44;5004784;28;20308;-77
2021/08/21 10:19:25;;;;;;;29.60;27.38;;;;;;;32.74;32.65;101152.66;4998805;28;20065;-77
2021/08/21 10:21:56;;;;;;;29.55;27.52;;;;;;;31.79;34.69;101163.66;5005401;28;20402;-78
2021/08/21 10:24:34;;;;;;;29.95;27.85;;;;;;;32.31;36.00;101151.28;5007467;28;20048;-78
2021/08/21 10:27:22;;;;;;;29.90;28.00;;;;;;;33.54;32.08;101146.41;5002200;28;20046;-76
2021/08/21 10:30:01;;;;;;;30.60;28.65;;;;;;;32.75;33.80;101157.84;4999581;28;20085;-77
2021/08/21 10:32:32;;;;;;;31.00;28.70;;;;;;;32.23;34.28;101153.03;4998271;28;20049;-76
2021/08/21 10:34:59;;;;;;;30.15;28.23;;;;;;;31.44;39.32;101152.25;5002140;28;20057;-78
2021/08/21 10:37:34;;;;;;;29.23;27.23;;;;;;;31.89;34.82;101145.94;5000842;28;20458;-78
2021/08/21 10:40:34;;;;;;;29.10;27.20;;;;;;;31.36;35.95;101145.69;5002880;28;20052;-77
2021/08/21 10:43:05;;;;;;;27.90;26.10;;;;;;;31.16;38.39;101152.75;5004815;28;20050;-77
2021/08/21 10:45:50;;;;;;;27.38;25.35;;;;;;;30.27;38.19;101141.03;4996971;28;20379;-80
2021/08/21 10:48:51;;;;;;;29.08;27.17;;;;;;;30.51;36.93;101146.69;5006300;28;20050;-76
2021/08/21 10:51:35;;;;;;;29.23;27.13;;;;;;;29.75;39.42;101141.97;5000588;28;20047;-76
2021/08/21 10:54:39;;;;;;;30.45;28.55;;;;;;;30.91;37.04;101137.28;5003138;28;20054;-78
2021/08/21 10:57:30;;;;;;;32.28;29.95;;;;;;;31.59;36.51;101135.13;4995988;28;20054;-77
2021/08/21 10:59:59;;;;;;;32.80;30.35;;;;;;;31.12;36.54;101135.34;4999242;28;20496;-77
2021/08/21 11:02:41;;;;;;;32.88;30.33;;;;;;;32.37;34.94;101130.69;5003652;28;20494;-79
2021/08/21 11:05:28;;;;;;;30.60;28.52;;;;;;;33.14;35.57;101124.44;4993706;28;20074;-83
2021/08/21 11:08:03;;;;;;;30.77;28.98;;;;;;;32.70;35.20;101129.78;4996741;28;20047;-79
2021/08/21 11:10:30;;;;;;;31.10;28.85;;;;;;;32.44;32.09;101119.09;5006026;28;20132;-79